Time;durP1;ratioP1;P1;durP2;ratioP2;P2;SDS_P1;SDS_P2;PMS_P1;PMS_P2;Temp;Humidity;BMP_temperature;BMP_pressure;BME280_temperature;BME280_humidity;BME280_pressure;Samples;Min_cycle;Max_cycle;Signal;HPM_P1;HPM_P2
2023/05/18 00:01:11;;;;;;;0.45;0.28;;;;;;;9.68;61.35;102961.91;5078663;27;100766;-28
2023/05/18 00:03:37;;;;;;;1.92;0.60;;;;;;;9.64;61.25;102960.19;5077619;27;96912;-28
2023/05/18 00:06:06;;;;;;;1.75;0.70;;;;;;;9.68;60.69;102961.91;5079294;27;96816;-28
2023/05/18 00:08:34;;;;;;;0.52;0.47;;;;;;;9.65;61.08;102958.38;5078193;27;99136;-28
2023/05/18 00:11:04;;;;;;;0.52;0.43;;;;;;;9.66;60.90;102957.47;5078508;27;100941;-28
2023/05/18 00:13:30;;;;;;;2.35;0.60;;;;;;;9.62;61.20;102963.88;5096962;27;96588;-29
2023/05/18 00:15:55;;;;;;;0.95;0.70;;;;;;;9.56;60.93;102962.19;5097507;27;96787;-28
2023/05/18 00:18:22;;;;;;;1.92;0.60;;;;;;;9.56;61.29;102967.63;5096951;27;97834;-28
2023/05/18 00:21:00;;;;;;;3.17;0.88;;;;;;;9.56;61.52;102964.91;5078185;27;101264;-29
2023/05/18 00:23:29;;;;;;;2.55;0.82;;;;;;;9.48;61.14;102965.06;5078701;27;96606;-28
2023/05/18 00:25:59;;;;;;;1.73;0.40;;;;;;;9.44;61.91;102971.50;5078641;27;96782;-28
2023/05/18 00:28:25;;;;;;;2.28;0.40;;;;;;;9.44;61.64;102971.50;5078267;27;101345;-28
2023/05/18 00:30:51;;;;;;;0.63;0.20;;;;;;;9.41;61.48;102973.34;5096919;27;98433;-28
2023/05/18 00:33:16;;;;;;;0.57;0.35;;;;;;;9.35;61.67;102969.88;5096625;27;96874;-28
2023/05/18 00:35:41;;;;;;;2.70;0.60;;;;;;;9.33;61.93;102966.31;5097142;27;96869;-29
2023/05/18 00:38:07;;;;;;;1.70;0.63;;;;;;;9.30;61.76;102977.19;5095948;27;99975;-28
2023/05/18 00:40:32;;;;;;;3.80;0.55;;;;;;;9.32;61.88;102969.06;5096618;27;98829;-28
2023/05/18 00:42:59;;;;;;;1.63;0.45;;;;;;;9.25;62.55;102968.31;5097192;27;96670;-27
2023/05/18 00:45:25;;;;;;;1.08;0.55;;;;;;;9.28;61.83;102976.34;5096430;27;97286;-28
2023/05/18 00:47:51;;;;;;;3.13;0.50;;;;;;;9.27;62.03;102971.88;5096466;27;99437;-30
2023/05/18 00:50:17;;;;;;;0.95;0.43;;;;;;;9.26;61.66;102974.59;5096568;27;97846;-28
2023/05/18 00:52:43;;;;;;;0.73;0.40;;;;;;;9.17;61.61;102970.25;5078221;27;96661;-28
2023/05/18 00:55:11;;;;;;;0.45;0.25;;;;;;;9.12;62.27;102974.88;5078432;27;96760;-29
2023/05/18 00:57:37;;;;;;;2.75;0.40;;;;;;;9.07;62.39;102965.97;5077876;27;101079;-28
2023/05/18 01:00:06;;;;;;;1.45;0.60;;;;;;;9.06;61.67;102972.31;5096384;27;97754;-28
2023/05/18 01:02:31;;;;;;;0.20;0.20;;;;;;;9.01;61.88;102976.91;5096175;27;96594;-28
2023/05/18 01:04:56;;;;;;;0.73;0.40;;;;;;;8.96;62.18;102976.13;5096939;27;96739;-28
2023/05/18 01:07:25;;;;;;;1.02;0.30;;;;;;;8.92;62.44;102972.59;5096001;27;97949;-29
2023/05/18 01:09:51;;;;;;;2.72;0.50;;;;;;;8.93;61.98;102979.78;5096031;27;99613;-28
2023/05/18 01:12:31;;;;;;;1.92;0.43;;;;;;;8.83;62.42;102970.97;5077786;27;96632;-28
2023/05/18 01:15:12;;;;;;;0.85;0.52;;;;;;;8.85;62.46;102974.53;5077377;27;96684;-28
2023/05/18 01:17:49;;;;;;;0.77;0.40;;;;;;;8.80;62.41;102970.16;5095919;27;101177;-30
2023/05/18 01:20:21;;;;;;;3.50;0.57;;;;;;;8.78;62.54;102980.09;5077987;27;100870;-28
2023/05/18 01:22:49;;;;;;;2.50;0.50;;;;;;;8.76;62.25;102981.94;5077853;27;96889;-28
2023/05/18 01:25:30;;;;;;;0.57;0.50;;;;;;;8.71;62.79;102968.50;5077704;27;96815;-28
2023/05/18 01:28:04;;;;;;;3.30;0.60;;;;;;;8.79;62.96;102980.03;5060091;27;100948;-30
2023/05/18 01:30:32;;;;;;;1.38;0.40;;;;;;;8.82;62.70;102988.13;5096293;27;98161;-28
2023/05/18 01:32:57;;;;;;;0.57;0.32;;;;;;;8.77;62.44;102981.91;5076912;27;97051;-28
2023/05/18 01:35:22;;;;;;;1.45;0.57;;;;;;;8.71;62.31;102969.41;5077965;27;96839;-29
2023/05/18 01:37:48;;;;;;;0.45;0.30;;;;;;;8.73;62.60;102974.78;5095629;27;98971;-28
2023/05/18 01:40:13;;;;;;;1.30;0.55;;;;;;;8.73;62.26;102977.47;5096014;27;97783;-28
2023/05/18 01:42:45;;;;;;;0.75;0.47;;;;;;;8.77;62.46;102983.69;5096287;27;96545;-29
2023/05/18 01:45:20;;;;;;;1.42;0.30;;;;;;;8.71;62.80;102972.09;5096698;27;96680;-28
2023/05/18 01:47:47;;;;;;;1.63;0.40;;;;;;;8.63;62.58;102971.38;5076933;27;100896;-29
2023/05/18 01:50:17;;;;;;;0.75;0.30;;;;;;;8.65;62.87;102974.03;5077094;27;100835;-28
2023/05/18 01:53:21;;;;;;;1.80;0.55;;;;;;;8.66;62.75;102979.41;5076743;27;96584;-28
2023/05/18 01:55:49;;;;;;;0.38;0.32;;;;;;;8.64;62.95;102969.56;5049449;27;96954;-28
2023/05/18 01:58:16;;;;;;;0.32;0.32;;;;;;;8.61;62.91;102972.31;5076812;27;101325;-28
2023/05/18 02:00:41;;;;;;;0.20;0.20;;;;;;;8.65;63.47;102980.34;5076956;27;100568;-28
2023/05/18 02:03:07;;;;;;;1.58;0.70;;;;;;;8.55;62.89;102975.13;5096125;27;96590;-28
2023/05/18 02:05:32;;;;;;;0.82;0.57;;;;;;;8.57;63.29;102970.59;5095543;27;96814;-28
2023/05/18 02:07:57;;;;;;;0.73;0.38;;;;;;;8.60;63.51;102982.22;5095378;27;98011;-28
2023/05/18 02:10:23;;;;;;;1.85;0.70;;;;;;;8.60;63.37;102968.72;5095976;27;97759;-29
2023/05/18 02:12:51;;;;;;;0.20;0.20;;;;;;;8.62;62.98;102977.69;5095292;27;96730;-28
2023/05/18 02:15:17;;;;;;;0.50;0.30;;;;;;;8.54;63.36;102973.34;5095709;27;96841;-27
2023/05/18 02:17:42;;;;;;;1.00;0.55;;;;;;;8.49;62.84;102970.75;5076170;27;101017;-29
2023/05/18 02:20:08;;;;;;;0.32;0.28;;;;;;;8.52;63.33;102973.38;5095507;27;97283;-30
2023/05/18 02:22:35;;;;;;;6.97;0.63;;;;;;;8.57;63.25;102976.88;5076940;27;96664;-30
2023/05/18 02:25:01;;;;;;;4.50;0.73;;;;;;;8.50;63.38;102972.50;5076954;27;96826;-28
2023/05/18 02:27:27;;;;;;;5.65;0.60;;;;;;;8.51;63.65;102971.59;5078539;27;101167;-29
2023/05/18 02:29:52;;;;;;;1.50;0.28;;;;;;;8.54;63.69;102985.03;5098692;27;99321;-28
2023/05/18 02:32:17;;;;;;;0.60;0.40;;;;;;;8.50;63.54;102984.19;5098401;27;96784;-29
2023/05/18 02:34:45;;;;;;;1.88;0.57;;;;;;;8.43;63.05;102977.13;5099547;27;96513;-28
2023/05/18 02:37:12;;;;;;;3.22;0.47;;;;;;;8.37;63.32;102976.34;5079946;27;100826;-28
2023/05/18 02:39:38;;;;;;;0.60;0.50;;;;;;;8.40;63.25;102974.50;5098717;27;97860;-28
2023/05/18 02:42:03;;;;;;;0.80;0.32;;;;;;;8.27;63.01;102962.09;5079564;27;96673;-29
2023/05/18 02:44:29;;;;;;;1.00;0.45;;;;;;;8.26;63.66;102972.00;5098723;27;96777;-28
2023/05/18 02:46:54;;;;;;;1.08;0.60;;;;;;;8.17;63.41;102965.88;5098606;27;97911;-29
2023/05/18 02:49:19;;;;;;;2.83;0.55;;;;;;;8.25;63.54;102963.94;5098537;27;97792;-28
2023/05/18 02:51:45;;;;;;;0.22;0.22;;;;;;;8.22;63.59;102964.91;5098756;27;96791;-28
2023/05/18 02:54:10;;;;;;;2.28;0.55;;;;;;;8.21;63.47;102963.09;5098652;27;96817;-29
2023/05/18 02:56:35;;;;;;;7.53;0.65;;;;;;;8.21;63.94;102960.41;5098390;27;97476;-28
2023/05/18 02:59:01;;;;;;;0.80;0.28;;;;;;;8.17;63.49;102955.97;5098823;27;97358;-28
2023/05/18 03:01:26;;;;;;;0.98;0.45;;;;;;;8.20;63.67;102961.31;5098368;27;96665;-29
2023/05/18 03:03:53;;;;;;;1.38;0.35;;;;;;;8.20;63.84;102963.13;5098358;27;96595;-28
2023/05/18 03:06:25;;;;;;;0.50;0.35;;;;;;;8.23;64.27;102968.47;5078939;27;100909;-28
2023/05/18 03:08:53;;;;;;;1.27;0.50;;;;;;;8.22;63.57;102972.06;5097792;27;99773;-28
2023/05/18 03:11:20;;;;;;;0.43;0.30;;;;;;;8.20;63.96;102957.72;5079574;27;96614;-28
2023/05/18 03:13:46;;;;;;;1.35;0.47;;;;;;;8.20;64.34;102961.31;5079734;27;96574;-28
2023/05/18 03:16:12;;;;;;;0.77;0.45;;;;;;;8.21;64.14;102970.31;5079356;27;99356;-28
2023/05/18 03:18:37;;;;;;;1.08;0.50;;;;;;;8.19;63.94;102973.03;5079303;27;101188;-29
2023/05/18 03:21:03;;;;;;;1.85;0.35;;;;;;;8.19;64.31;102977.53;5098102;27;96538;-28
2023/05/18 03:23:29;;;;;;;0.50;0.47;;;;;;;8.16;63.98;102956.88;5098817;27;96742;-28
2023/05/18 03:25:54;;;;;;;1.08;0.55;;;;;;;8.12;64.87;102971.34;5097932;27;97994;-29
2023/05/18 03:28:20;;;;;;;0.80;0.38;;;;;;;8.11;64.71;102968.69;5097724;27;99230;-29
2023/05/18 03:30:46;;;;;;;1.20;0.60;;;;;;;8.11;64.17;102968.69;5079075;27;96649;-29
2023/05/18 03:33:11;;;;;;;0.90;0.60;;;;;;;8.05;63.93;102975.06;5078924;27;96844;-28
2023/05/18 03:35:39;;;;;;;4.68;0.65;;;;;;;8.01;63.91;102974.25;5097924;27;97907;-28
2023/05/18 03:38:05;;;;;;;0.17;0.13;;;;;;;7.99;64.27;102970.69;5097459;27;97827;-28
2023/05/18 03:40:30;;;;;;;1.40;0.65;;;;;;;7.88;64.43;102969.94;5079089;27;96679;-30
2023/05/18 03:42:55;;;;;;;1.42;0.70;;;;;;;7.92;64.63;102985.19;5098328;27;96848;-28
2023/05/18 03:45:21;;;;;;;2.63;0.70;;;;;;;7.90;64.70;102981.63;5097777;27;98014;-28
2023/05/18 03:47:46;;;;;;;0.73;0.65;;;;;;;7.93;64.84;102976.16;5097932;27;97250;-29
2023/05/18 03:50:12;;;;;;;1.95;0.55;;;;;;;7.88;64.82;102980.75;5097726;27;96600;-29
2023/05/18 03:52:38;;;;;;;0.63;0.50;;;;;;;7.90;64.51;102969.94;5098020;27;96729;-29
2023/05/18 03:55:04;;;;;;;1.52;0.77;;;;;;;7.91;64.69;102972.59;5078235;27;98863;-28
2023/05/18 03:57:31;;;;;;;0.77;0.43;;;;;;;7.97;64.88;102968.91;5078626;27;101467;-28
2023/05/18 03:59:56;;;;;;;0.50;0.32;;;;;;;7.96;64.92;102978.84;5078922;27;96659;-28
2023/05/18 04:02:22;;;;;;;0.47;0.35;;;;;;;7.99;65.06;102976.06;5097636;27;96810;-28
2023/05/18 04:04:48;;;;;;;1.95;0.55;;;;;;;8.01;64.90;102978.75;5097461;27;98119;-28
2023/05/18 04:07:20;;;;;;;0.73;0.47;;;;;;;7.94;64.64;102975.25;5078233;27;100635;-28
2023/05/18 04:09:47;;;;;;;0.57;0.30;;;;;;;7.93;64.89;102978.84;5097868;27;96432;-28
2023/05/18 04:12:13;;;;;;;0.57;0.57;;;;;;;8.00;65.33;102977.84;5079228;27;96924;-30
2023/05/18 04:14:48;;;;;;;1.17;0.68;;;;;;;8.01;64.88;102979.66;5097311;27;97864;-28
2023/05/18 04:17:14;;;;;;;2.00;0.55;;;;;;;7.87;65.65;102969.06;5078647;27;99021;-28
2023/05/18 04:19:40;;;;;;;1.88;0.45;;;;;;;7.96;65.30;102981.53;5096795;27;96632;-29
2023/05/18 04:22:06;;;;;;;2.83;0.38;;;;;;;7.99;65.52;102977.88;5096882;27;96841;-28
2023/05/18 04:24:33;;;;;;;3.00;0.90;;;;;;;8.00;64.97;102988.63;5078253;27;101407;-28
2023/05/18 04:26:59;;;;;;;0.93;0.50;;;;;;;7.91;65.00;102982.50;5078224;27;101490;-29
2023/05/18 04:29:26;;;;;;;1.15;0.63;;;;;;;7.97;65.42;102988.69;5078538;27;96596;-29
2023/05/18 04:31:52;;;;;;;4.22;0.60;;;;;;;7.98;64.78;102992.28;5096881;27;96727;-28
2023/05/18 04:34:18;;;;;;;0.75;0.50;;;;;;;7.88;64.60;102984.31;5096492;27;99344;-28
2023/05/18 04:36:43;;;;;;;0.90;0.70;;;;;;;7.97;65.27;102994.09;5097012;27;98540;-29
2023/05/18 04:39:10;;;;;;;1.75;1.00;;;;;;;7.97;64.98;102998.59;5096925;27;96555;-28
2023/05/18 04:41:35;;;;;;;4.82;1.05;;;;;;;7.93;64.96;102997.75;5078312;27;96768;-28
2023/05/18 04:44:01;;;;;;;0.75;0.63;;;;;;;7.92;64.58;102987.88;5096386;27;97418;-28
2023/05/18 04:46:27;;;;;;;0.20;0.20;;;;;;;7.87;64.41;103001.44;5096582;27;97761;-28
2023/05/18 04:48:56;;;;;;;5.35;0.85;;;;;;;7.81;64.35;103006.03;5095928;27;96582;-28
2023/05/18 04:51:22;;;;;;;3.40;0.90;;;;;;;7.81;65.12;103006.03;5078313;27;96916;-28
2023/05/18 04:53:51;;;;;;;0.85;0.50;;;;;;;7.71;64.76;103004.41;5077966;27;101210;-29
2023/05/18 04:56:19;;;;;;;1.15;0.60;;;;;;;7.71;65.42;102997.19;5077789;27;101333;-28
2023/05/18 04:58:46;;;;;;;1.88;0.80;;;;;;;7.72;65.46;103000.78;5078099;27;96505;-28
2023/05/18 05:01:14;;;;;;;0.63;0.60;;;;;;;7.82;65.18;103003.31;5061649;27;96759;-28
2023/05/18 05:03:39;;;;;;;1.00;0.65;;;;;;;7.88;65.62;103005.03;5077502;27;100902;-29
2023/05/18 05:06:05;;;;;;;0.73;0.40;;;;;;;7.92;64.69;103006.78;5096338;27;97495;-28
2023/05/18 05:08:30;;;;;;;1.90;0.60;;;;;;;7.86;65.14;102999.69;5096249;27;96647;-29
2023/05/18 05:10:56;;;;;;;1.20;0.55;;;;;;;7.88;64.72;103002.31;5096870;27;96823;-28
2023/05/18 05:13:21;;;;;;;0.52;0.40;;;;;;;7.91;65.23;103007.66;5096386;27;97936;-28
2023/05/18 05:15:46;;;;;;;1.20;0.50;;;;;;;7.91;64.93;103010.38;5096437;27;97740;-28
2023/05/18 05:18:12;;;;;;;1.67;0.73;;;;;;;7.93;64.46;103008.53;5096893;27;96683;-28
2023/05/18 05:20:37;;;;;;;2.75;0.90;;;;;;;7.91;64.38;103004.97;5096227;27;96738;-28
2023/05/18 05:23:02;;;;;;;1.40;0.68;;;;;;;7.98;64.56;103012.06;5096356;27;97328;-29
2023/05/18 05:25:28;;;;;;;0.47;0.28;;;;;;;8.06;64.34;103020.94;5096219;27;99383;-28
2023/05/18 05:27:53;;;;;;;1.95;0.88;;;;;;;8.16;64.34;103026.19;5096157;27;96469;-28
2023/05/18 05:30:18;;;;;;;1.55;0.85;;;;;;;8.23;63.90;103014.38;5096500;27;96838;-29
2023/05/18 05:32:44;;;;;;;3.10;1.25;;;;;;;8.25;64.14;103013.44;5094558;27;99296;-29
2023/05/18 05:35:09;;;;;;;1.33;0.60;;;;;;;8.25;64.11;103012.53;5095760;27;98815;-28
2023/05/18 05:37:35;;;;;;;5.63;1.25;;;;;;;8.36;64.03;103018.63;5096317;27;96658;-29
2023/05/18 05:40:00;;;;;;;2.45;0.77;;;;;;;8.42;63.54;103013.16;5096406;27;96853;-29
2023/05/18 05:42:26;;;;;;;0.75;0.52;;;;;;;8.53;63.47;103017.47;5095577;27;99397;-28
2023/05/18 05:44:51;;;;;;;0.90;0.50;;;;;;;8.62;63.13;103014.63;5095661;27;99165;-28
2023/05/18 05:47:17;;;;;;;0.80;0.55;;;;;;;8.65;62.48;103003.75;5096188;27;96534;-29
2023/05/18 05:49:42;;;;;;;0.38;0.38;;;;;;;8.80;62.54;103019.69;5096294;27;96765;-28
2023/05/18 05:52:07;;;;;;;4.20;1.05;;;;;;;8.81;62.38;103020.56;5095795;27;97709;-29
2023/05/18 05:54:33;;;;;;;1.45;0.75;;;;;;;8.87;62.22;103009.66;5095759;27;97981;-28
2023/05/18 05:56:58;;;;;;;3.63;0.90;;;;;;;8.93;62.21;103020.31;5095726;27;96584;-30
2023/05/18 05:59:23;;;;;;;0.43;0.38;;;;;;;9.00;61.97;103008.47;5095968;27;96723;-28
2023/05/18 06:01:49;;;;;;;1.55;0.50;;;;;;;9.12;61.77;103012.72;5098552;27;97905;-29
2023/05/18 06:04:15;;;;;;;1.67;0.70;;;;;;;9.14;61.77;103005.50;5080363;27;101284;-28
2023/05/18 06:06:42;;;;;;;3.92;0.93;;;;;;;9.36;61.49;103014.03;5099224;27;97237;-28
2023/05/18 06:09:08;;;;;;;1.90;0.63;;;;;;;9.39;61.46;103019.38;5080651;27;96918;-29
2023/05/18 06:11:33;;;;;;;2.15;0.70;;;;;;;9.38;61.35;103017.59;5099184;27;97305;-28
2023/05/18 06:13:59;;;;;;;2.30;0.60;;;;;;;9.54;61.31;103018.16;5099480;27;97894;-28
2023/05/18 06:16:24;;;;;;;0.38;0.38;;;;;;;9.55;60.77;103023.50;5099401;27;96469;-28
2023/05/18 06:18:50;;;;;;;0.98;0.55;;;;;;;9.60;60.90;103018.00;5099543;27;96741;-29
2023/05/18 06:21:15;;;;;;;1.13;0.50;;;;;;;9.53;60.65;103028.09;5079818;27;100789;-28
2023/05/18 06:23:41;;;;;;;0.80;0.57;;;;;;;9.39;60.84;103027.50;5080340;27;100521;-29
2023/05/18 06:26:07;;;;;;;0.40;0.40;;;;;;;9.34;61.04;103032.09;5080553;27;96718;-28
2023/05/18 06:28:32;;;;;;;2.67;0.88;;;;;;;9.38;61.36;103041.06;5099210;27;96763;-28
2023/05/18 06:30:58;;;;;;;6.00;1.20;;;;;;;9.42;61.16;103045.47;5098895;27;97872;-28
2023/05/18 06:33:23;;;;;;;4.57;1.48;;;;;;;9.44;61.05;103041.81;5098249;27;97811;-28
2023/05/18 06:35:50;;;;;;;1.02;0.70;;;;;;;9.48;60.77;103043.50;5098978;27;96593;-30
2023/05/18 06:38:15;;;;;;;2.15;1.05;;;;;;;9.56;60.56;103046.97;5080860;27;96797;-28
2023/05/18 06:40:40;;;;;;;1.23;0.70;;;;;;;9.63;60.78;103036.91;5098829;27;97885;-29
2023/05/18 06:43:07;;;;;;;2.42;0.98;;;;;;;9.84;59.80;103046.31;5098515;27;99411;-28
2023/05/18 06:45:32;;;;;;;4.00;0.52;;;;;;;9.75;60.15;103033.91;5079784;27;96550;-28
2023/05/18 06:47:57;;;;;;;1.38;0.40;;;;;;;9.90;59.91;103034.47;5098501;27;96848;-28
2023/05/18 06:50:23;;;;;;;1.90;0.85;;;;;;;10.00;59.44;103049.56;5098633;27;97374;-28
2023/05/18 06:52:48;;;;;;;6.40;1.27;;;;;;;10.08;60.21;103042.16;5098644;27;97744;-28
2023/05/18 06:55:14;;;;;;;1.98;0.68;;;;;;;10.19;59.68;103039.19;5080676;27;96616;-28
2023/05/18 06:57:40;;;;;;;3.35;0.85;;;;;;;10.31;59.82;103054.28;5098453;27;96803;-29
2023/05/18 07:00:09;;;;;;;4.97;0.90;;;;;;;10.34;58.89;103055.06;5098128;27;99448;-29
2023/05/18 07:02:34;;;;;;;2.20;0.90;;;;;;;10.50;58.86;103050.16;5080050;27;100564;-28
2023/05/18 07:05:00;;;;;;;0.95;0.55;;;;;;;10.59;58.42;103049.94;5098683;27;96590;-28
2023/05/18 07:07:26;;;;;;;0.77;0.55;;;;;;;10.66;58.31;103038.94;5079709;27;96938;-28
2023/05/18 07:09:53;;;;;;;3.25;0.57;;;;;;;10.78;58.52;103055.75;5097827;27;97918;-28
2023/05/18 07:12:19;;;;;;;0.75;0.40;;;;;;;10.97;58.33;103057.97;5078690;27;101401;-28
2023/05/18 07:14:44;;;;;;;1.15;0.38;;;;;;;11.11;57.99;103046.72;5098336;27;96475;-28
2023/05/18 07:17:09;;;;;;;0.50;0.40;;;;;;;11.24;57.00;103054.47;5098161;27;96792;-28
2023/05/18 07:19:35;;;;;;;3.85;0.95;;;;;;;11.33;56.66;103063.28;5098211;27;97977;-28
2023/05/18 07:22:00;;;;;;;3.08;1.08;;;;;;;11.29;56.46;103057.03;5097776;27;99187;-28
2023/05/18 07:24:26;;;;;;;1.55;0.68;;;;;;;11.31;56.56;103057.00;5098098;27;96753;-28
2023/05/18 07:26:51;;;;;;;3.78;0.80;;;;;;;11.35;56.76;103056.00;5098362;27;96819;-29
2023/05/18 07:29:16;;;;;;;2.63;0.98;;;;;;;11.34;56.37;103055.06;5098022;27;97943;-28
2023/05/18 07:31:42;;;;;;;1.67;0.77;;;;;;;11.32;56.84;103054.25;5097335;27;97895;-28
2023/05/18 07:34:07;;;;;;;1.05;0.60;;;;;;;11.32;56.26;103046.13;5097361;27;96711;-28
2023/05/18 07:36:33;;;;;;;2.28;0.52;;;;;;;11.38;56.94;103053.19;5098231;27;96789;-28
2023/05/18 07:39:00;;;;;;;2.28;0.52;;;;;;;11.44;56.62;103059.31;5079177;27;101013;-28
2023/05/18 07:41:26;;;;;;;3.45;1.10;;;;;;;11.35;56.20;103064.13;5097610;27;99629;-28
2023/05/18 07:43:52;;;;;;;2.25;1.00;;;;;;;11.29;56.46;103059.75;5079452;27;96594;-28
2023/05/18 07:46:18;;;;;;;2.22;0.77;;;;;;;11.26;56.03;103073.41;5097972;27;96821;-28
2023/05/18 07:48:44;;;;;;;2.33;0.57;;;;;;;11.19;57.13;103063.69;5079022;27;101046;-28
2023/05/18 07:51:10;;;;;;;5.40;0.82;;;;;;;11.17;56.90;103068.25;5097960;27;97856;-28
2023/05/18 07:53:36;;;;;;;1.13;0.38;;;;;;;11.08;56.88;103069.38;5079298;27;96612;-28
2023/05/18 07:56:02;;;;;;;2.00;0.95;;;;;;;10.99;57.04;103075.97;5097621;27;96826;-28
2023/05/18 07:58:28;;;;;;;2.45;0.63;;;;;;;10.90;57.26;103069.91;5078250;27;101745;-29
2023/05/18 08:00:53;;;;;;;1.15;0.65;;;;;;;10.93;57.13;103065.28;5097274;27;98284;-28
2023/05/18 08:03:19;;;;;;;2.25;0.40;;;;;;;10.93;57.10;103073.41;5097817;27;96609;-28
2023/05/18 08:05:44;;;;;;;1.80;0.93;;;;;;;10.91;57.29;103071.69;5097814;27;96719;-28
2023/05/18 08:08:13;;;;;;;0.85;0.60;;;;;;;10.95;57.47;103060.72;5096764;27;99432;-28
2023/05/18 08:10:40;;;;;;;2.17;0.45;;;;;;;11.08;57.08;103076.63;5078501;27;101224;-29
2023/05/18 08:13:05;;;;;;;1.60;0.52;;;;;;;11.12;56.85;103073.81;5078800;27;96504;-28
2023/05/18 08:15:31;;;;;;;1.20;0.57;;;;;;;11.21;56.50;103075.38;5097713;27;96726;-28
2023/05/18 08:17:56;;;;;;;1.85;0.73;;;;;;;11.32;56.76;103067.81;5097033;27;98869;-29
2023/05/18 08:20:22;;;;;;;0.77;0.57;;;;;;;11.40;56.15;103070.31;5096894;27;99030;-28
2023/05/18 08:22:47;;;;;;;1.20;0.70;;;;;;;11.64;55.95;103066.84;5096767;27;97299;-27
2023/05/18 08:25:13;;;;;;;2.25;0.60;;;;;;;11.85;55.22;103057.16;5096292;27;96766;-28
2023/05/18 08:27:38;;;;;;;1.52;0.80;;;;;;;11.83;54.42;103074.44;5096826;27;97933;-34
2023/05/18 08:30:04;;;;;;;1.38;0.50;;;;;;;11.80;54.76;103069.13;5096817;27;98013;-28
2023/05/18 08:32:30;;;;;;;8.50;1.30;;;;;;;11.76;54.97;103071.03;5096450;27;96785;-28
2023/05/18 08:34:56;;;;;;;2.30;0.52;;;;;;;11.78;54.28;103074.59;5078433;27;96575;-28
2023/05/18 08:37:27;;;;;;;7.35;0.80;;;;;;;11.69;54.11;103064.00;5096946;27;98001;-28
2023/05/18 08:39:53;;;;;;;1.98;0.57;;;;;;;11.74;54.53;103059.31;5097171;27;99418;-28
2023/05/18 08:42:22;;;;;;;3.67;0.63;;;;;;;11.77;54.84;103061.94;5097135;27;96530;-28
2023/05/18 08:45:06;;;;;;;2.50;0.65;;;;;;;11.79;54.54;103067.31;5078302;27;96847;-28
2023/05/18 08:47:35;;;;;;;2.08;0.70;;;;;;;11.81;54.70;103063.63;5095967;27;98872;-29
2023/05/18 08:50:01;;;;;;;1.63;0.60;;;;;;;11.80;54.46;103059.13;5077854;27;100829;-28
2023/05/18 08:52:34;;;;;;;3.28;0.88;;;;;;;11.86;55.12;103053.50;5078339;27;96580;-28
2023/05/18 08:55:04;;;;;;;2.78;0.77;;;;;;;11.90;54.72;103051.63;5078105;27;97007;-28
2023/05/18 08:57:33;;;;;;;2.05;0.63;;;;;;;11.85;54.63;103046.31;5077957;27;100900;-28
2023/05/18 09:00:00;;;;;;;2.72;0.73;;;;;;;12.00;54.81;103058.53;5077675;27;100719;-28
2023/05/18 09:02:26;;;;;;;0.88;0.63;;;;;;;12.00;54.23;103065.78;5078045;27;96738;-29
2023/05/18 09:04:54;;;;;;;1.40;0.73;;;;;;;12.07;54.64;103046.53;5078526;27;96839;-28
2023/05/18 09:07:21;;;;;;;1.73;0.73;;;;;;;12.24;54.46;103051.41;5077356;27;101223;-28
2023/05/18 09:09:48;;;;;;;3.08;0.73;;;;;;;12.32;53.94;103048.41;5096563;27;97373;-28
2023/05/18 09:12:16;;;;;;;4.10;1.00;;;;;;;12.41;53.65;103047.22;5077543;27;96553;-28
2023/05/18 09:14:42;;;;;;;5.10;0.93;;;;;;;12.58;53.89;103046.66;5077916;27;96896;-29
2023/05/18 09:17:08;;;;;;;1.52;0.82;;;;;;;12.78;52.94;103044.13;5077544;27;101061;-28
2023/05/18 09:19:34;;;;;;;1.83;0.65;;;;;;;12.87;53.10;103032.94;5077545;27;100769;-28
2023/05/18 09:21:59;;;;;;;1.65;0.73;;;;;;;13.11;52.96;103032.97;5096057;27;96744;-30
2023/05/18 09:24:25;;;;;;;2.08;0.80;;;;;;;13.45;51.76;103024.44;5096651;27;96749;-28
2023/05/18 09:26:51;;;;;;;2.15;0.50;;;;;;;13.80;51.60;103025.78;5095979;27;99375;-28
2023/05/18 09:29:21;;;;;;;3.08;1.05;;;;;;;14.09;50.87;103017.38;5096562;27;97846;-29
2023/05/18 09:31:47;;;;;;;1.27;0.52;;;;;;;14.20;49.97;103012.34;5095991;27;96665;-28
2023/05/18 09:34:13;;;;;;;2.38;0.80;;;;;;;14.39;49.34;103023.34;5077291;27;96859;-28
2023/05/18 09:36:39;;;;;;;1.00;0.80;;;;;;;14.55;48.84;103018.16;5076247;27;101485;-28
2023/05/18 09:39:11;;;;;;;2.25;0.82;;;;;;;14.69;48.45;103026.63;5095612;27;99354;-28
2023/05/18 09:41:40;;;;;;;1.73;0.65;;;;;;;14.97;48.79;103011.72;5077607;27;96903;-28
2023/05/18 09:44:11;;;;;;;3.15;0.88;;;;;;;15.05;48.53;103009.56;5077522;27;96566;-28
2023/05/18 09:46:38;;;;;;;2.22;0.90;;;;;;;15.17;47.93;103021.75;5095572;27;99406;-28
2023/05/18 09:49:05;;;;;;;1.38;0.85;;;;;;;14.93;47.24;103004.66;5076823;27;101944;-28
2023/05/18 09:51:34;;;;;;;0.98;0.60;;;;;;;14.83;46.99;103018.72;5077410;27;96706;-29
2023/05/18 09:54:03;;;;;;;2.25;0.73;;;;;;;14.72;48.02;103021.03;5096366;27;96768;-28
2023/05/18 09:56:29;;;;;;;2.42;0.93;;;;;;;14.40;48.40;103020.56;5076918;27;101358;-28
2023/05/18 09:58:54;;;;;;;0.57;0.52;;;;;;;14.23;49.33;103013.09;5076889;27;100985;-28
2023/05/18 10:01:20;;;;;;;5.18;1.10;;;;;;;13.94;49.53;103022.50;5095581;27;96607;-28
2023/05/18 10:03:47;;;;;;;4.35;1.00;;;;;;;13.89;50.40;103019.06;5095939;27;96815;-29
2023/05/18 10:06:13;;;;;;;1.67;0.77;;;;;;;13.96;50.04;103023.31;5095468;27;98097;-28
2023/05/18 10:08:39;;;;;;;1.88;0.77;;;;;;;13.79;49.04;103013.09;5076539;27;100515;-28
2023/05/18 10:11:06;;;;;;;1.95;0.70;;;;;;;13.82;49.18;103022.97;5077205;27;96523;-28
2023/05/18 10:13:32;;;;;;;2.35;1.10;;;;;;;13.81;49.97;103015.75;5077188;27;96879;-28
2023/05/18 10:16:03;;;;;;;3.65;0.90;;;;;;;13.87;49.68;103006.44;5076603;27;101208;-29
2023/05/18 10:18:39;;;;;;;0.40;0.40;;;;;;;13.91;49.26;103010.81;5077107;27;101716;-28
2023/05/18 10:21:08;;;;;;;0.93;0.65;;;;;;;13.82;49.26;103003.91;5077198;27;96768;-28
2023/05/18 10:23:35;;;;;;;4.57;1.05;;;;;;;13.86;48.95;103010.13;5076870;27;96914;-28
2023/05/18 10:26:04;;;;;;;5.65;1.17;;;;;;;13.87;49.55;103004.63;5076240;27;101250;-28
2023/05/18 10:28:36;;;;;;;1.75;0.73;;;;;;;14.24;49.42;103006.69;5076541;27;98957;-28
2023/05/18 10:31:03;;;;;;;3.92;0.88;;;;;;;14.46;48.91;103003.03;5095124;27;96443;-29
2023/05/18 10:33:29;;;;;;;2.08;0.88;;;;;;;14.47;48.09;102999.38;5076493;27;96924;-29
2023/05/18 10:35:56;;;;;;;1.42;0.45;;;;;;;14.56;49.17;102996.28;5095157;27;98001;-28
2023/05/18 10:38:22;;;;;;;2.97;0.77;;;;;;;14.70;48.25;103001.09;5076403;27;100994;-28
2023/05/18 10:40:50;;;;;;;3.03;1.10;;;;;;;14.77;46.65;102994.44;5095341;27;96647;-28
2023/05/18 10:43:19;;;;;;;2.90;1.30;;;;;;;14.77;47.89;102993.53;5077026;27;96878;-28
2023/05/18 10:45:52;;;;;;;3.20;0.82;;;;;;;14.69;47.02;102998.47;5094902;27;99385;-29
2023/05/18 10:48:19;;;;;;;3.50;0.80;;;;;;;14.59;46.74;102984.34;5078248;27;101234;-28
2023/05/18 10:50:47;;;;;;;1.30;0.82;;;;;;;14.60;47.27;102992.44;5079595;27;96623;-27
2023/05/18 10:53:13;;;;;;;0.95;0.52;;;;;;;14.71;47.64;102983.81;5080104;27;96952;-28
2023/05/18 10:55:38;;;;;;;3.33;1.10;;;;;;;14.97;47.91;102989.91;5079612;27;101374;-28
2023/05/18 10:58:11;;;;;;;2.13;1.00;;;;;;;15.10;47.52;102976.59;5098634;27;97281;-28
2023/05/18 11:00:38;;;;;;;4.32;0.85;;;;;;;15.30;47.22;102979.25;5080186;27;96558;-28
2023/05/18 11:03:11;;;;;;;1.25;0.93;;;;;;;15.44;46.38;102982.22;5080164;27;96840;-28
2023/05/18 11:05:38;;;;;;;2.33;0.50;;;;;;;15.46;47.52;102973.97;5079581;27;100955;-28
2023/05/18 11:08:04;;;;;;;3.63;1.05;;;;;;;15.34;45.47;102980.88;5098087;27;99082;-34
2023/05/18 11:10:48;;;;;;;2.08;0.80;;;;;;;15.19;48.01;102976.16;5079881;27;96482;-28
2023/05/18 11:13:14;;;;;;;1.35;0.80;;;;;;;15.04;47.46;102973.19;5098412;27;96745;-28
2023/05/18 11:15:55;;;;;;;2.50;1.02;;;;;;;15.07;47.93;102980.34;5078297;27;100944;-28
2023/05/18 11:18:31;;;;;;;0.70;0.60;;;;;;;15.03;47.56;102965.94;5095229;27;99403;-29
2023/05/18 11:20:57;;;;;;;2.20;0.93;;;;;;;14.92;47.87;102973.75;5098576;27;96606;-29
2023/05/18 11:23:23;;;;;;;2.80;0.82;;;;;;;14.83;47.79;102972.34;5098361;27;96847;-28
2023/05/18 11:25:48;;;;;;;2.75;1.08;;;;;;;14.87;47.78;102970.34;5097990;27;97795;-28
2023/05/18 11:28:14;;;;;;;1.55;0.90;;;;;;;14.90;48.48;102977.50;5097766;27;99300;-28